sensor_id;sensor_type;location;lat;lon;timestamp;pressure;altitude;pressure_sealevel;temperature;humidity
65758;BME280;52495;52.208;5.158;2023-07-08T00:02:09;101677.13;;;22.14;51.18
65758;BME280;52495;52.208;5.158;2023-07-08T00:04:38;101676.28;;;22.14;51.29
65758;BME280;52495;52.208;5.158;2023-07-08T00:07:10;101672.59;;;22.01;51.95
65758;BME280;52495;52.208;5.158;2023-07-08T00:09:37;101666.56;;;21.98;51.46
65758;BME280;52495;52.208;5.158;2023-07-08T00:12:08;101660.78;;;21.92;51.65
65758;BME280;52495;52.208;5.158;2023-07-08T00:14:36;101655.16;;;21.82;52.40
65758;BME280;52495;52.208;5.158;2023-07-08T00:17:08;101657.84;;;21.80;52.38
65758;BME280;52495;52.208;5.158;2023-07-08T00:19:35;101658.19;;;21.74;52.47
65758;BME280;52495;52.208;5.158;2023-07-08T00:22:07;101653.00;;;21.73;52.86
65758;BME280;52495;52.208;5.158;2023-07-08T00:24:35;101649.03;;;21.81;52.54
65758;BME280;52495;52.208;5.158;2023-07-08T00:27:02;101651.22;;;21.73;52.51
65758;BME280;52495;52.208;5.158;2023-07-08T00:29:28;101649.16;;;21.62;52.76
65758;BME280;52495;52.208;5.158;2023-07-08T00:31:55;101650.91;;;21.62;53.14
65758;BME280;52495;52.208;5.158;2023-07-08T00:34:22;101657.28;;;21.56;53.15
65758;BME280;52495;52.208;5.158;2023-07-08T00:36:49;101648.72;;;21.52;53.37
65758;BME280;52495;52.208;5.158;2023-07-08T00:39:17;101647.91;;;21.52;53.21
65758;BME280;52495;52.208;5.158;2023-07-08T00:41:45;101643.56;;;21.51;53.36
65758;BME280;52495;52.208;5.158;2023-07-08T00:44:13;101637.97;;;21.40;53.67
65758;BME280;52495;52.208;5.158;2023-07-08T00:46:50;101641.53;;;21.38;53.90
65758;BME280;52495;52.208;5.158;2023-07-08T00:49:30;101632.72;;;21.40;54.07
65758;BME280;52495;52.208;5.158;2023-07-08T00:52:15;101639.28;;;21.31;54.86
65758;BME280;52495;52.208;5.158;2023-07-08T00:54:44;101635.09;;;21.27;54.70
65758;BME280;52495;52.208;5.158;2023-07-08T00:57:11;101630.88;;;21.24;55.23
65758;BME280;52495;52.208;5.158;2023-07-08T00:59:41;101630.41;;;21.16;55.36
65758;BME280;52495;52.208;5.158;2023-07-08T01:02:12;101635.97;;;21.10;55.65
65758;BME280;52495;52.208;5.158;2023-07-08T01:04:48;101640.28;;;21.11;55.76
65758;BME280;52495;52.208;5.158;2023-07-08T01:07:17;101630.94;;;21.05;56.36
65758;BME280;52495;52.208;5.158;2023-07-08T01:09:51;101635.69;;;20.97;57.01
65758;BME280;52495;52.208;5.158;2023-07-08T01:12:22;101632.16;;;20.98;56.74
65758;BME280;52495;52.208;5.158;2023-07-08T01:14:52;101622.66;;;20.95;56.87
65758;BME280;52495;52.208;5.158;2023-07-08T01:17:21;101614.25;;;20.88;57.12
65758;BME280;52495;52.208;5.158;2023-07-08T01:19:48;101608.91;;;20.90;57.25
65758;BME280;52495;52.208;5.158;2023-07-08T01:22:18;101613.16;;;20.73;57.71
65758;BME280;52495;52.208;5.158;2023-07-08T01:24:46;101605.75;;;20.64;57.99
65758;BME280;52495;52.208;5.158;2023-07-08T01:27:15;101611.47;;;20.72;57.87
65758;BME280;52495;52.208;5.158;2023-07-08T01:29:43;101614.41;;;20.66;58.18
65758;BME280;52495;52.208;5.158;2023-07-08T01:32:13;101614.59;;;20.61;58.61
65758;BME280;52495;52.208;5.158;2023-07-08T01:34:44;101617.44;;;20.57;58.39
65758;BME280;52495;52.208;5.158;2023-07-08T01:37:29;101607.72;;;20.59;58.38
65758;BME280;52495;52.208;5.158;2023-07-08T01:39:56;101612.31;;;20.54;58.64
65758;BME280;52495;52.208;5.158;2023-07-08T01:42:23;101609.56;;;20.57;58.55
65758;BME280;52495;52.208;5.158;2023-07-08T01:44:51;101604.75;;;20.47;59.07
65758;BME280;52495;52.208;5.158;2023-07-08T01:47:20;101610.19;;;20.43;59.18
65758;BME280;52495;52.208;5.158;2023-07-08T01:49:49;101600.38;;;20.29;59.72
65758;BME280;52495;52.208;5.158;2023-07-08T01:52:16;101604.69;;;20.30;59.99
65758;BME280;52495;52.208;5.158;2023-07-08T01:54:54;101601.78;;;20.36;59.66
65758;BME280;52495;52.208;5.158;2023-07-08T01:57:22;101596.84;;;20.30;59.67
65758;BME280;52495;52.208;5.158;2023-07-08T01:59:49;101598.03;;;20.23;60.13
65758;BME280;52495;52.208;5.158;2023-07-08T02:02:15;101589.50;;;20.17;60.33
65758;BME280;52495;52.208;5.158;2023-07-08T02:04:42;101586.09;;;20.15;60.57
65758;BME280;52495;52.208;5.158;2023-07-08T02:07:12;101587.19;;;20.11;60.53
65758;BME280;52495;52.208;5.158;2023-07-08T02:09:38;101584.56;;;20.11;60.67
65758;BME280;52495;52.208;5.158;2023-07-08T02:12:08;101587.31;;;20.08;60.94
65758;BME280;52495;52.208;5.158;2023-07-08T02:14:35;101577.06;;;20.04;60.89
65758;BME280;52495;52.208;5.158;2023-07-08T02:17:02;101574.63;;;19.99;61.17
65758;BME280;52495;52.208;5.158;2023-07-08T02:19:31;101579.84;;;19.99;61.28
65758;BME280;52495;52.208;5.158;2023-07-08T02:21:58;101571.41;;;19.92;61.51
65758;BME280;52495;52.208;5.158;2023-07-08T02:24:26;101571.69;;;19.86;61.78
65758;BME280;52495;52.208;5.158;2023-07-08T02:26:53;101578.81;;;19.82;61.83
65758;BME280;52495;52.208;5.158;2023-07-08T02:29:21;101567.63;;;19.79;62.12
65758;BME280;52495;52.208;5.158;2023-07-08T02:31:48;101560.47;;;19.82;61.97
65758;BME280;52495;52.208;5.158;2023-07-08T02:34:15;101566.72;;;19.80;61.98
65758;BME280;52495;52.208;5.158;2023-07-08T02:36:41;101567.75;;;19.76;62.35
65758;BME280;52495;52.208;5.158;2023-07-08T02:39:09;101558.34;;;19.71;62.44
65758;BME280;52495;52.208;5.158;2023-07-08T02:41:36;101559.28;;;19.70;62.54
65758;BME280;52495;52.208;5.158;2023-07-08T02:44:03;101558.63;;;19.65;62.97
65758;BME280;52495;52.208;5.158;2023-07-08T02:46:32;101555.22;;;19.63;63.09
65758;BME280;52495;52.208;5.158;2023-07-08T02:48:59;101557.03;;;19.61;63.45
65758;BME280;52495;52.208;5.158;2023-07-08T02:51:27;101558.63;;;19.65;63.25
65758;BME280;52495;52.208;5.158;2023-07-08T02:53:54;101553.59;;;19.61;63.38
65758;BME280;52495;52.208;5.158;2023-07-08T02:56:21;101549.06;;;19.64;63.06
65758;BME280;52495;52.208;5.158;2023-07-08T02:58:48;101555.41;;;19.59;63.48
65758;BME280;52495;52.208;5.158;2023-07-08T03:01:15;101545.78;;;19.59;63.20
65758;BME280;52495;52.208;5.158;2023-07-08T03:03:45;101555.66;;;19.52;63.68
65758;BME280;52495;52.208;5.158;2023-07-08T03:06:12;101552.25;;;19.50;63.79
65758;BME280;52495;52.208;5.158;2023-07-08T03:08:39;101543.78;;;19.45;63.66
65758;BME280;52495;52.208;5.158;2023-07-08T03:11:07;101547.91;;;19.51;63.70
65758;BME280;52495;52.208;5.158;2023-07-08T03:13:35;101543.03;;;19.41;63.93
65758;BME280;52495;52.208;5.158;2023-07-08T03:16:03;101549.28;;;19.39;64.14
65758;BME280;52495;52.208;5.158;2023-07-08T03:18:38;101551.22;;;19.34;64.28
65758;BME280;52495;52.208;5.158;2023-07-08T03:21:15;101553.94;;;19.32;64.30
65758;BME280;52495;52.208;5.158;2023-07-08T03:23:42;101550.50;;;19.30;64.40
65758;BME280;52495;52.208;5.158;2023-07-08T03:26:13;101545.41;;;19.27;64.35
65758;BME280;52495;52.208;5.158;2023-07-08T03:28:42;101555.16;;;19.23;64.95
65758;BME280;52495;52.208;5.158;2023-07-08T03:31:10;101551.97;;;19.17;64.93
65758;BME280;52495;52.208;5.158;2023-07-08T03:33:37;101551.97;;;19.17;64.88
65758;BME280;52495;52.208;5.158;2023-07-08T03:36:08;101550.06;;;19.20;65.18
65758;BME280;52495;52.208;5.158;2023-07-08T03:38:39;101557.19;;;19.17;65.07
65758;BME280;52495;52.208;5.158;2023-07-08T03:41:05;101560.66;;;19.17;65.18
65758;BME280;52495;52.208;5.158;2023-07-08T03:43:32;101560.94;;;19.11;65.60
65758;BME280;52495;52.208;5.158;2023-07-08T03:45:59;101559.03;;;19.15;65.29
65758;BME280;52495;52.208;5.158;2023-07-08T03:48:26;101563.53;;;19.11;65.67
65758;BME280;52495;52.208;5.158;2023-07-08T03:50:54;101556.59;;;19.10;65.75
65758;BME280;52495;52.208;5.158;2023-07-08T03:53:20;101567.78;;;19.14;65.57
65758;BME280;52495;52.208;5.158;2023-07-08T03:55:49;101567.06;;;19.10;65.61
65758;BME280;52495;52.208;5.158;2023-07-08T03:58:16;101560.84;;;19.13;65.46
65758;BME280;52495;52.208;5.158;2023-07-08T04:00:43;101559.16;;;19.11;65.68
65758;BME280;52495;52.208;5.158;2023-07-08T04:03:10;101564.50;;;19.08;65.92
65758;BME280;52495;52.208;5.158;2023-07-08T04:05:38;101561.97;;;19.07;65.93
65758;BME280;52495;52.208;5.158;2023-07-08T04:08:05;101565.56;;;19.04;66.14
65758;BME280;52495;52.208;5.158;2023-07-08T04:10:31;101568.91;;;19.08;65.91
65758;BME280;52495;52.208;5.158;2023-07-08T04:13:00;101564.56;;;19.07;66.11
65758;BME280;52495;52.208;5.158;2023-07-08T04:15:26;101567.50;;;18.99;66.61
65758;BME280;52495;52.208;5.158;2023-07-08T04:17:54;101565.59;;;19.03;66.34
65758;BME280;52495;52.208;5.158;2023-07-08T04:20:23;101564.78;;;19.02;66.06
65758;BME280;52495;52.208;5.158;2023-07-08T04:22:49;101561.25;;;19.03;66.54
65758;BME280;52495;52.208;5.158;2023-07-08T04:25:18;101564.56;;;19.07;66.19
65758;BME280;52495;52.208;5.158;2023-07-08T04:27:45;101558.56;;;19.05;66.10
65758;BME280;52495;52.208;5.158;2023-07-08T04:30:20;101556.94;;;19.02;66.82
65758;BME280;52495;52.208;5.158;2023-07-08T04:32:49;101562.63;;;19.12;66.02
65758;BME280;52495;52.208;5.158;2023-07-08T04:35:16;101564.13;;;19.18;65.61
65758;BME280;52495;52.208;5.158;2023-07-08T04:37:43;101568.78;;;19.11;66.21
65758;BME280;52495;52.208;5.158;2023-07-08T04:40:17;101563.53;;;19.11;66.10
65758;BME280;52495;52.208;5.158;2023-07-08T04:42:45;101565.28;;;19.10;66.35
65758;BME280;52495;52.208;5.158;2023-07-08T04:45:17;101563.22;;;19.19;66.07
65758;BME280;52495;52.208;5.158;2023-07-08T04:47:45;101576.22;;;19.20;65.91
65758;BME280;52495;52.208;5.158;2023-07-08T04:50:18;101567.38;;;19.23;65.90
65758;BME280;52495;52.208;5.158;2023-07-08T04:52:44;101563.84;;;19.24;65.74
65758;BME280;52495;52.208;5.158;2023-07-08T04:55:12;101567.06;;;19.31;65.51
65758;BME280;52495;52.208;5.158;2023-07-08T04:57:39;101571.47;;;19.30;65.42
65758;BME280;52495;52.208;5.158;2023-07-08T05:00:09;101564.84;;;19.42;65.04
65758;BME280;52495;52.208;5.158;2023-07-08T05:02:40;101558.13;;;19.36;65.12
65758;BME280;52495;52.208;5.158;2023-07-08T05:05:08;101560.44;;;19.42;65.05
65758;BME280;52495;52.208;5.158;2023-07-08T05:07:34;101560.53;;;19.41;64.97
65758;BME280;52495;52.208;5.158;2023-07-08T05:10:01;101552.47;;;19.46;65.05
65758;BME280;52495;52.208;5.158;2023-07-08T05:12:28;101553.06;;;19.52;64.78
65758;BME280;52495;52.208;5.158;2023-07-08T05:14:55;101549.31;;;19.58;64.58
65758;BME280;52495;52.208;5.158;2023-07-08T05:17:21;101550.88;;;19.62;64.34
65758;BME280;52495;52.208;5.158;2023-07-08T05:19:51;101545.66;;;19.62;64.32
65758;BME280;52495;52.208;5.158;2023-07-08T05:22:19;101548.97;;;19.66;64.22
65758;BME280;52495;52.208;5.158;2023-07-08T05:24:50;101545.16;;;19.73;63.78
65758;BME280;52495;52.208;5.158;2023-07-08T05:27:20;101553.88;;;19.74;64.09
65758;BME280;52495;52.208;5.158;2023-07-08T05:29:47;101552.03;;;19.76;63.69
65758;BME280;52495;52.208;5.158;2023-07-08T05:32:14;101550.91;;;19.81;63.64
65758;BME280;52495;52.208;5.158;2023-07-08T05:34:41;101554.19;;;19.86;63.89
65758;BME280;52495;52.208;5.158;2023-07-08T05:37:09;101555.66;;;19.94;63.47
65758;BME280;52495;52.208;5.158;2023-07-08T05:39:36;101553.66;;;19.99;63.48
65758;BME280;52495;52.208;5.158;2023-07-08T05:42:04;101554.28;;;20.04;63.19
65758;BME280;52495;52.208;5.158;2023-07-08T05:44:31;101558.75;;;20.02;63.46
65758;BME280;52495;52.208;5.158;2023-07-08T05:46:58;101553.25;;;20.08;63.37
65758;BME280;52495;52.208;5.158;2023-07-08T05:49:24;101557.25;;;20.15;62.83
65758;BME280;52495;52.208;5.158;2023-07-08T05:51:51;101563.94;;;20.23;62.73
65758;BME280;52495;52.208;5.158;2023-07-08T05:54:19;101557.63;;;20.27;62.69
65758;BME280;52495;52.208;5.158;2023-07-08T05:56:46;101544.38;;;20.30;62.60
65758;BME280;52495;52.208;5.158;2023-07-08T05:59:12;101551.34;;;20.31;62.97
65758;BME280;52495;52.208;5.158;2023-07-08T06:01:39;101556.53;;;20.50;62.29
65758;BME280;52495;52.208;5.158;2023-07-08T06:04:06;101561.00;;;20.48;62.69
65758;BME280;52495;52.208;5.158;2023-07-08T06:06:33;101561.69;;;20.52;62.68
65758;BME280;52495;52.208;5.158;2023-07-08T06:08:59;101562.84;;;20.65;62.39
65758;BME280;52495;52.208;5.158;2023-07-08T06:11:28;101559.44;;;20.63;62.97
65758;BME280;52495;52.208;5.158;2023-07-08T06:13:55;101553.88;;;20.69;62.59
65758;BME280;52495;52.208;5.158;2023-07-08T06:16:23;101556.25;;;20.75;62.42
65758;BME280;52495;52.208;5.158;2023-07-08T06:18:50;101554.16;;;20.82;62.13
65758;BME280;52495;52.208;5.158;2023-07-08T06:21:16;101554.69;;;20.89;61.98
65758;BME280;52495;52.208;5.158;2023-07-08T06:23:43;101553.34;;;20.99;62.05
65758;BME280;52495;52.208;5.158;2023-07-08T06:26:10;101563.22;;;21.12;61.95
65758;BME280;52495;52.208;5.158;2023-07-08T06:28:38;101555.72;;;21.21;61.70
65758;BME280;52495;52.208;5.158;2023-07-08T06:31:05;101562.28;;;21.30;61.62
65758;BME280;52495;52.208;5.158;2023-07-08T06:33:32;101557.72;;;21.34;61.11
65758;BME280;52495;52.208;5.158;2023-07-08T06:35:59;101562.72;;;21.38;60.99
65758;BME280;52495;52.208;5.158;2023-07-08T06:38:25;101561.94;;;21.54;60.30
65758;BME280;52495;52.208;5.158;2023-07-08T06:40:52;101560.94;;;21.57;60.03
65758;BME280;52495;52.208;5.158;2023-07-08T06:43:19;101564.91;;;21.65;59.59
65758;BME280;52495;52.208;5.158;2023-07-08T06:45:50;101568.88;;;21.73;59.10
65758;BME280;52495;52.208;5.158;2023-07-08T06:48:17;101562.28;;;21.81;58.75
65758;BME280;52495;52.208;5.158;2023-07-08T06:50:46;101567.22;;;21.88;58.66
65758;BME280;52495;52.208;5.158;2023-07-08T06:53:13;101564.09;;;21.97;57.63
65758;BME280;52495;52.208;5.158;2023-07-08T06:55:40;101560.22;;;22.04;57.98
65758;BME280;52495;52.208;5.158;2023-07-08T06:58:07;101562.25;;;22.15;57.91
65758;BME280;52495;52.208;5.158;2023-07-08T07:00:34;101560.03;;;22.23;57.44
65758;BME280;52495;52.208;5.158;2023-07-08T07:03:02;101564.38;;;22.40;57.40
65758;BME280;52495;52.208;5.158;2023-07-08T07:05:29;101563.03;;;22.49;56.90
65758;BME280;52495;52.208;5.158;2023-07-08T07:07:57;101557.41;;;22.55;56.28
65758;BME280;52495;52.208;5.158;2023-07-08T07:10:24;101556.81;;;22.66;56.23
65758;BME280;52495;52.208;5.158;2023-07-08T07:12:51;101548.31;;;22.77;55.70
65758;BME280;52495;52.208;5.158;2023-07-08T07:15:18;101557.38;;;22.87;56.38
65758;BME280;52495;52.208;5.158;2023-07-08T07:17:44;101549.75;;;22.97;55.57
65758;BME280;52495;52.208;5.158;2023-07-08T07:20:13;101547.38;;;23.09;55.46
65758;BME280;52495;52.208;5.158;2023-07-08T07:22:40;101533.63;;;23.18;55.19
65758;BME280;52495;52.208;5.158;2023-07-08T07:25:07;101538.47;;;23.26;54.87
65758;BME280;52495;52.208;5.158;2023-07-08T07:27:34;101539.63;;;23.36;54.72
65758;BME280;52495;52.208;5.158;2023-07-08T07:30:01;101544.16;;;23.48;53.76
65758;BME280;52495;52.208;5.158;2023-07-08T07:32:28;101541.22;;;23.53;53.48
65758;BME280;52495;52.208;5.158;2023-07-08T07:34:55;101537.94;;;23.64;52.74
65758;BME280;52495;52.208;5.158;2023-07-08T07:37:26;101541.03;;;23.71;52.71
65758;BME280;52495;52.208;5.158;2023-07-08T07:39:52;101542.25;;;23.79;51.76
65758;BME280;52495;52.208;5.158;2023-07-08T07:42:19;101549.63;;;23.89;52.22
65758;BME280;52495;52.208;5.158;2023-07-08T07:44:46;101547.34;;;23.97;51.32
65758;BME280;52495;52.208;5.158;2023-07-08T07:47:13;101544.34;;;24.03;51.52
65758;BME280;52495;52.208;5.158;2023-07-08T07:49:40;101532.63;;;24.22;50.97
65758;BME280;52495;52.208;5.158;2023-07-08T07:52:07;101542.31;;;24.21;51.04
65758;BME280;52495;52.208;5.158;2023-07-08T07:54:37;101534.66;;;24.31;50.90
65758;BME280;52495;52.208;5.158;2023-07-08T07:57:05;101529.50;;;24.43;50.64
65758;BME280;52495;52.208;5.158;2023-07-08T07:59:32;101536.72;;;24.53;50.53
65758;BME280;52495;52.208;5.158;2023-07-08T08:01:58;101531.63;;;24.65;50.26
65758;BME280;52495;52.208;5.158;2023-07-08T08:04:25;101525.66;;;24.76;49.74
65758;BME280;52495;52.208;5.158;2023-07-08T08:06:52;101523.75;;;24.91;49.28
65758;BME280;52495;52.208;5.158;2023-07-08T08:09:19;101527.78;;;24.96;49.24
65758;BME280;52495;52.208;5.158;2023-07-08T08:11:47;101522.72;;;25.06;48.77
65758;BME280;52495;52.208;5.158;2023-07-08T08:14:13;101524.84;;;25.14;48.44
65758;BME280;52495;52.208;5.158;2023-07-08T08:16:40;101524.31;;;25.22;48.42
65758;BME280;52495;52.208;5.158;2023-07-08T08:19:07;101523.78;;;25.29;48.16
65758;BME280;52495;52.208;5.158;2023-07-08T08:21:34;101524.94;;;25.38;47.48
65758;BME280;52495;52.208;5.158;2023-07-08T08:24:01;101526.88;;;25.49;47.15
65758;BME280;52495;52.208;5.158;2023-07-08T08:26:28;101532.56;;;25.56;47.10
65758;BME280;52495;52.208;5.158;2023-07-08T08:28:56;101525.78;;;25.65;47.05
65758;BME280;52495;52.208;5.158;2023-07-08T08:31:23;101528.63;;;25.74;47.21
65758;BME280;52495;52.208;5.158;2023-07-08T08:33:51;101528.00;;;25.84;46.97
65758;BME280;52495;52.208;5.158;2023-07-08T08:36:17;101532.75;;;25.91;46.56
65758;BME280;52495;52.208;5.158;2023-07-08T08:38:46;101533.75;;;26.02;46.38
65758;BME280;52495;52.208;5.158;2023-07-08T08:41:14;101537.53;;;26.11;46.12
65758;BME280;52495;52.208;5.158;2023-07-08T08:43:42;101540.75;;;26.16;45.58
65758;BME280;52495;52.208;5.158;2023-07-08T08:46:19;101541.00;;;26.24;44.85
65758;BME280;52495;52.208;5.158;2023-07-08T08:48:53;101554.63;;;26.31;45.70
65758;BME280;52495;52.208;5.158;2023-07-08T08:51:25;101544.47;;;26.38;45.63
65758;BME280;52495;52.208;5.158;2023-07-08T08:53:56;101546.44;;;26.47;45.73
65758;BME280;52495;52.208;5.158;2023-07-08T08:56:25;101550.06;;;26.57;45.44
65758;BME280;52495;52.208;5.158;2023-07-08T08:58:59;101550.97;;;26.69;45.08
65758;BME280;52495;52.208;5.158;2023-07-08T09:01:31;101547.44;;;26.81;44.59
65758;BME280;52495;52.208;5.158;2023-07-08T09:04:00;101552.63;;;26.94;44.59
65758;BME280;52495;52.208;5.158;2023-07-08T09:06:31;101554.47;;;27.05;44.49
65758;BME280;52495;52.208;5.158;2023-07-08T09:09:02;101552.19;;;27.12;43.86
65758;BME280;52495;52.208;5.158;2023-07-08T09:11:40;101549.91;;;27.19;44.27
65758;BME280;52495;52.208;5.158;2023-07-08T09:14:18;101547.53;;;27.27;43.65
65758;BME280;52495;52.208;5.158;2023-07-08T09:16:54;101533.78;;;27.33;43.29
65758;BME280;52495;52.208;5.158;2023-07-08T09:19:24;101536.81;;;27.40;43.41
65758;BME280;52495;52.208;5.158;2023-07-08T09:21:57;101538.25;;;27.44;43.12
65758;BME280;52495;52.208;5.158;2023-07-08T09:24:29;101535.66;;;27.55;42.65
65758;BME280;52495;52.208;5.158;2023-07-08T09:27:00;101535.53;;;27.57;42.69
65758;BME280;52495;52.208;5.158;2023-07-08T09:29:28;101538.44;;;27.65;42.54
65758;BME280;52495;52.208;5.158;2023-07-08T09:31:58;101541.78;;;27.79;42.27
65758;BME280;52495;52.208;5.158;2023-07-08T09:34:37;101538.28;;;27.90;42.07
65758;BME280;52495;52.208;5.158;2023-07-08T09:37:20;101527.75;;;27.99;41.26
65758;BME280;52495;52.208;5.158;2023-07-08T09:39:47;101533.78;;;28.13;41.77
65758;BME280;52495;52.208;5.158;2023-07-08T09:42:15;101533.88;;;28.23;41.53
65758;BME280;52495;52.208;5.158;2023-07-08T09:44:44;101536.63;;;28.32;41.36
65758;BME280;52495;52.208;5.158;2023-07-08T09:47:20;101529.31;;;28.46;40.38
65758;BME280;52495;52.208;5.158;2023-07-08T09:49:48;101534.47;;;28.59;40.90
65758;BME280;52495;52.208;5.158;2023-07-08T09:52:16;101530.88;;;28.70;40.92
65758;BME280;52495;52.208;5.158;2023-07-08T09:54:45;101526.94;;;28.75;40.48
65758;BME280;52495;52.208;5.158;2023-07-08T09:57:20;101528.69;;;28.86;40.73
65758;BME280;52495;52.208;5.158;2023-07-08T09:59:53;101523.28;;;28.98;40.48
65758;BME280;52495;52.208;5.158;2023-07-08T10:02:30;101525.16;;;29.07;40.12
65758;BME280;52495;52.208;5.158;2023-07-08T10:05:00;101531.38;;;29.17;40.01
65758;BME280;52495;52.208;5.158;2023-07-08T10:07:29;101531.53;;;29.26;39.49
65758;BME280;52495;52.208;5.158;2023-07-08T10:10:00;101540.47;;;29.36;39.07
65758;BME280;52495;52.208;5.158;2023-07-08T10:12:30;101532.06;;;29.41;38.93
65758;BME280;52495;52.208;5.158;2023-07-08T10:14:59;101541.06;;;29.49;38.02
65758;BME280;52495;52.208;5.158;2023-07-08T10:17:29;101543.31;;;29.54;38.40
65758;BME280;52495;52.208;5.158;2023-07-08T10:19:56;101543.63;;;29.61;38.16
65758;BME280;52495;52.208;5.158;2023-07-08T10:22:39;101540.84;;;29.72;36.98
65758;BME280;52495;52.208;5.158;2023-07-08T10:25:16;101524.63;;;29.75;37.69
65758;BME280;52495;52.208;5.158;2023-07-08T10:27:54;101518.91;;;29.80;36.67
65758;BME280;52495;52.208;5.158;2023-07-08T10:30:25;101521.56;;;29.90;36.82
65758;BME280;52495;52.208;5.158;2023-07-08T10:33:08;101519.81;;;30.00;36.46
65758;BME280;52495;52.208;5.158;2023-07-08T10:35:42;101515.31;;;30.10;36.02
65758;BME280;52495;52.208;5.158;2023-07-08T10:38:28;101517.88;;;30.22;34.84
65758;BME280;52495;52.208;5.158;2023-07-08T10:41:00;101521.66;;;30.29;35.34
65758;BME280;52495;52.208;5.158;2023-07-08T10:43:55;101519.97;;;30.38;36.46
65758;BME280;52495;52.208;5.158;2023-07-08T10:46:31;101525.84;;;30.51;36.45
65758;BME280;52495;52.208;5.158;2023-07-08T10:49:24;101523.19;;;30.61;35.80
65758;BME280;52495;52.208;5.158;2023-07-08T10:51:58;101520.41;;;30.72;35.72
65758;BME280;52495;52.208;5.158;2023-07-08T10:54:46;101520.38;;;30.82;35.75
65758;BME280;52495;52.208;5.158;2023-07-08T10:57:30;101512.34;;;30.92;35.99
65758;BME280;52495;52.208;5.158;2023-07-08T11:00:04;101509.97;;;30.99;35.76
65758;BME280;52495;52.208;5.158;2023-07-08T11:02:52;101507.22;;;31.09;35.83
65758;BME280;52495;52.208;5.158;2023-07-08T11:05:29;101511.91;;;31.16;35.81
65758;BME280;52495;52.208;5.158;2023-07-08T11:08:00;101502.47;;;31.22;34.83
65758;BME280;52495;52.208;5.158;2023-07-08T11:10:34;101504.25;;;31.31;35.75
65758;BME280;52495;52.208;5.158;2023-07-08T11:13:05;101495.38;;;31.41;34.59
65758;BME280;52495;52.208;5.158;2023-07-08T11:15:36;101496.72;;;31.45;34.26
65758;BME280;52495;52.208;5.158;2023-07-08T11:18:11;101500.34;;;31.54;34.66
65758;BME280;52495;52.208;5.158;2023-07-08T11:20:44;101503.94;;;31.62;34.34
65758;BME280;52495;52.208;5.158;2023-07-08T11:23:22;101497.19;;;31.68;33.21
65758;BME280;52495;52.208;5.158;2023-07-08T11:25:53;101503.63;;;31.75;33.34
65758;BME280;52495;52.208;5.158;2023-07-08T11:28:22;101498.50;;;31.82;33.26
65758;BME280;52495;52.208;5.158;2023-07-08T11:30:51;101500.53;;;31.98;32.84
65758;BME280;52495;52.208;5.158;2023-07-08T11:33:22;101492.22;;;32.01;32.42
65758;BME280;52495;52.208;5.158;2023-07-08T11:35:53;101492.56;;;32.06;32.04
65758;BME280;52495;52.208;5.158;2023-07-08T11:38:24;101490.00;;;32.15;31.90
65758;BME280;52495;52.208;5.158;2023-07-08T11:40:53;101489.22;;;32.22;31.57
65758;BME280;52495;52.208;5.158;2023-07-08T11:43:23;101479.59;;;32.30;31.01
65758;BME280;52495;52.208;5.158;2023-07-08T11:45:54;101482.38;;;32.38;30.57
65758;BME280;52495;52.208;5.158;2023-07-08T11:48:25;101489.59;;;32.46;30.87
65758;BME280;52495;52.208;5.158;2023-07-08T11:50:55;101482.78;;;32.51;30.79
65758;BME280;52495;52.208;5.158;2023-07-08T11:53:35;101488.34;;;32.58;30.61
65758;BME280;52495;52.208;5.158;2023-07-08T11:56:06;101478.06;;;32.72;30.38
65758;BME280;52495;52.208;5.158;2023-07-08T11:58:57;101483.66;;;32.78;29.70
65758;BME280;52495;52.208;5.158;2023-07-08T12:01:27;101479.38;;;32.86;29.54
65758;BME280;52495;52.208;5.158;2023-07-08T12:03:59;101492.47;;;32.97;28.94
65758;BME280;52495;52.208;5.158;2023-07-08T12:06:47;101476.09;;;33.00;29.13
65758;BME280;52495;52.208;5.158;2023-07-08T12:09:19;101471.78;;;33.07;28.97
65758;BME280;52495;52.208;5.158;2023-07-08T12:11:52;101459.44;;;33.14;29.40
65758;BME280;52495;52.208;5.158;2023-07-08T12:14:19;101471.69;;;33.25;29.84
65758;BME280;52495;52.208;5.158;2023-07-08T12:16:46;101470.22;;;33.31;28.75
65758;BME280;52495;52.208;5.158;2023-07-08T12:19:16;101469.97;;;33.42;27.43
65758;BME280;52495;52.208;5.158;2023-07-08T12:21:45;101468.59;;;33.38;27.60
65758;BME280;52495;52.208;5.158;2023-07-08T12:24:13;101462.25;;;33.39;27.92
65758;BME280;52495;52.208;5.158;2023-07-08T12:26:40;101465.28;;;33.44;28.43
65758;BME280;52495;52.208;5.158;2023-07-08T12:29:10;101457.25;;;33.53;28.33
65758;BME280;52495;52.208;5.158;2023-07-08T12:31:38;101461.28;;;33.65;28.54
65758;BME280;52495;52.208;5.158;2023-07-08T12:34:11;101450.28;;;33.77;28.48
65758;BME280;52495;52.208;5.158;2023-07-08T12:36:39;101448.28;;;33.87;27.74
65758;BME280;52495;52.208;5.158;2023-07-08T12:39:10;101446.47;;;33.87;27.71
65758;BME280;52495;52.208;5.158;2023-07-08T12:41:37;101446.31;;;33.97;28.33
65758;BME280;52495;52.208;5.158;2023-07-08T12:44:12;101450.84;;;34.05;28.34
65758;BME280;52495;52.208;5.158;2023-07-08T12:46:40;101443.47;;;34.07;28.25
65758;BME280;52495;52.208;5.158;2023-07-08T12:49:08;101447.00;;;34.08;28.15
65758;BME280;52495;52.208;5.158;2023-07-08T12:51:34;101445.81;;;34.10;28.29
65758;BME280;52495;52.208;5.158;2023-07-08T12:54:01;101442.66;;;34.15;28.48
65758;BME280;52495;52.208;5.158;2023-07-08T12:56:29;101446.31;;;34.22;29.12
65758;BME280;52495;52.208;5.158;2023-07-08T12:58:57;101451.00;;;34.28;28.68
65758;BME280;52495;52.208;5.158;2023-07-08T13:01:28;101447.31;;;34.29;28.97
65758;BME280;52495;52.208;5.158;2023-07-08T13:04:04;101445.31;;;34.31;28.46